createdAt,value
2023-01-18T00:01:23.630Z,91.77
2023-01-18T00:06:23.555Z,92.08
2023-01-18T00:11:23.475Z,92.64
2023-01-18T00:16:23.463Z,93.16
2023-01-18T00:21:23.364Z,93.48
2023-01-18T00:26:23.315Z,93.89
2023-01-18T00:31:23.293Z,94.31
2023-01-18T00:36:23.192Z,94.51
2023-01-18T00:41:23.170Z,95.03
2023-01-18T00:46:23.073Z,94.93
2023-01-18T00:51:22.993Z,95.76
2023-01-18T00:56:22.940Z,96.18
2023-01-18T01:01:22.993Z,96.39
2023-01-18T01:06:22.823Z,96.33
2023-01-18T01:11:22.753Z,96.28
2023-01-18T01:16:22.705Z,95.97
2023-01-18T01:21:22.636Z,95.76
2023-01-18T01:26:22.576Z,96.28
2023-01-18T01:31:22.539Z,96.53
2023-01-18T01:36:22.449Z,96.75
2023-01-18T01:41:22.385Z,96.85
2023-01-18T01:46:22.323Z,96.95
2023-01-18T01:51:22.276Z,97.16
2023-01-18T01:56:22.210Z,97.37
2023-01-18T02:01:22.244Z,97.62
2023-01-18T02:06:22.084Z,97.94
2023-01-18T02:11:22.034Z,97.72
2023-01-18T02:16:21.988Z,98.14
2023-01-18T02:21:21.904Z,98.56
2023-01-18T02:26:21.836Z,98.46
2023-01-18T02:31:21.774Z,98.46
2023-01-18T02:36:21.702Z,98.35
2023-01-18T02:41:21.655Z,98.20
2023-01-18T02:46:21.630Z,97.78
2023-01-18T02:51:21.534Z,97.94
2023-01-18T02:56:21.466Z,97.78
2023-01-18T03:01:21.514Z,97.68
2023-01-18T03:06:21.352Z,97.58
2023-01-18T03:11:21.296Z,97.68
2023-01-18T03:16:21.260Z,97.89
2023-01-18T03:21:21.179Z,97.99
2023-01-18T03:26:21.094Z,98.14
2023-01-18T03:31:21.097Z,98.14
2023-01-18T03:36:20.974Z,98.50
2023-01-18T03:41:20.914Z,98.75
2023-01-18T03:46:20.868Z,98.44
2023-01-18T03:51:20.785Z,99.01
2023-01-18T03:56:20.726Z,99.63
2023-01-18T04:01:20.758Z,99.89
2023-01-18T04:06:20.591Z,99.99
2023-01-18T04:11:20.542Z,99.99
2023-01-18T04:16:20.492Z,99.99
2023-01-18T04:21:20.412Z,99.99
2023-01-18T04:26:20.345Z,99.99
2023-01-18T04:31:20.362Z,99.99
2023-01-18T04:36:20.251Z,99.99
2023-01-18T04:41:20.181Z,99.99
2023-01-18T04:46:20.178Z,99.99
2023-01-18T04:51:20.057Z,99.99
2023-01-18T04:56:19.979Z,99.99
2023-01-18T05:01:20.058Z,99.99
2023-01-18T05:06:19.878Z,99.99
2023-01-18T05:11:19.812Z,99.99
2023-01-18T05:16:19.791Z,99.99
2023-01-18T05:21:19.690Z,99.99
2023-01-18T05:26:19.627Z,99.99
2023-01-18T05:31:19.589Z,99.99
2023-01-18T05:36:19.526Z,99.99
2023-01-18T05:41:19.448Z,99.99
2023-01-18T05:46:19.388Z,99.99
2023-01-18T05:51:19.332Z,99.99
2023-01-18T05:56:19.288Z,99.99
2023-01-18T06:01:19.234Z,99.99
2023-01-18T06:06:19.162Z,99.99
2023-01-18T06:11:19.092Z,99.99
2023-01-18T06:16:19.081Z,99.99
2023-01-18T06:21:18.983Z,99.99
2023-01-18T06:26:18.899Z,99.99
2023-01-18T06:31:18.927Z,99.99
2023-01-18T06:36:18.773Z,99.99
2023-01-18T06:41:18.724Z,99.99
2023-01-18T06:46:18.756Z,99.99
2023-01-18T06:51:18.588Z,99.99
2023-01-18T06:56:18.516Z,99.99
2023-01-18T07:01:18.565Z,99.99
2023-01-18T07:06:18.394Z,99.99
2023-01-18T07:11:18.336Z,99.99
2023-01-18T07:16:18.349Z,99.99
2023-01-18T07:21:18.215Z,99.99
2023-01-18T07:26:18.138Z,99.99
2023-01-18T07:31:18.094Z,99.99
2023-01-18T07:36:18.026Z,99.99
2023-01-18T07:41:17.970Z,99.99
2023-01-18T07:46:17.909Z,99.99
2023-01-18T07:51:17.840Z,99.99
2023-01-18T07:56:17.767Z,99.99
2023-01-18T08:01:17.816Z,99.99
2023-01-18T08:06:17.646Z,99.99
2023-01-18T08:11:17.585Z,99.99
2023-01-18T08:16:17.527Z,99.99
2023-01-18T08:21:17.465Z,99.99
2023-01-18T08:26:17.395Z,99.99
2023-01-18T08:31:17.455Z,99.99
2023-01-18T08:36:17.276Z,99.99
2023-01-18T08:41:17.235Z,99.99
2023-01-18T08:46:20.512Z,99.99
2023-01-18T08:51:17.105Z,99.99
2023-01-18T08:56:17.025Z,99.99
2023-01-18T09:01:17.106Z,99.99
2023-01-18T09:06:16.917Z,99.99
2023-01-18T09:11:16.854Z,99.99
2023-01-18T09:16:16.860Z,99.99
2023-01-18T09:21:16.743Z,99.73
2023-01-18T09:26:16.683Z,99.52
2023-01-18T09:31:16.636Z,99.21
2023-01-18T09:36:16.533Z,98.75
2023-01-18T09:41:16.485Z,98.54
2023-01-18T09:46:16.414Z,98.39
2023-01-18T09:51:16.354Z,98.19
2023-01-18T09:56:16.290Z,97.56
2023-01-18T10:01:16.314Z,97.20
2023-01-18T10:06:16.166Z,97.00
2023-01-18T10:11:16.104Z,96.48
2023-01-18T10:16:18.052Z,96.37
2023-01-18T10:21:15.986Z,95.75
2023-01-18T10:26:15.915Z,95.44
2023-01-18T10:31:19.217Z,95.23
2023-01-18T10:36:15.793Z,95.03
2023-01-18T10:41:15.733Z,94.61
2023-01-18T10:46:15.677Z,94.61
2023-01-18T10:51:15.614Z,94.51
2023-01-18T10:56:15.562Z,94.40
2023-01-18T11:01:15.591Z,94.40
2023-01-18T11:06:15.422Z,94.51
2023-01-18T11:11:15.362Z,94.61
2023-01-18T11:16:15.334Z,94.61
2023-01-18T11:21:15.240Z,94.86
2023-01-18T11:26:15.195Z,95.28
2023-01-18T11:31:15.124Z,95.44
2023-01-18T11:36:15.049Z,95.90
2023-01-18T11:41:14.998Z,96.21
2023-01-18T11:46:15.039Z,96.17
2023-01-18T11:51:14.873Z,95.65
2023-01-18T11:56:14.784Z,95.44
2023-01-18T12:01:14.795Z,95.34
2023-01-18T12:06:14.673Z,95.03
2023-01-18T12:11:14.619Z,94.46
2023-01-18T12:16:21.388Z,94.67
2023-01-18T12:21:14.486Z,94.36
2023-01-18T12:26:14.426Z,94.05
2023-01-18T12:31:14.372Z,93.63
2023-01-18T12:36:14.305Z,93.22
2023-01-18T12:41:14.243Z,92.76
2023-01-18T12:46:14.240Z,92.14
2023-01-18T12:51:14.122Z,91.62
2023-01-18T12:56:14.067Z,91.66
2023-01-18T13:01:19.375Z,91.76
2023-01-18T13:06:13.952Z,92.38
2023-01-18T13:11:13.891Z,92.59
2023-01-18T13:16:13.856Z,92.59
2023-01-18T13:21:13.780Z,92.69
2023-01-18T13:26:13.716Z,92.18
2023-01-18T13:31:13.707Z,91.86
2023-01-18T13:36:13.574Z,92.38
2023-01-18T13:41:13.514Z,92.18
2023-01-18T13:46:13.524Z,92.38
2023-01-18T13:51:13.383Z,92.28
2023-01-18T13:56:13.344Z,91.80
2023-01-18T14:01:13.434Z,91.60
2023-01-18T14:06:13.207Z,91.70
2023-01-18T14:11:13.141Z,90.70
2023-01-18T14:16:13.142Z,90.29
2023-01-18T14:21:13.032Z,90.19
2023-01-18T14:26:12.952Z,89.77
2023-01-18T14:31:12.917Z,89.36
2023-01-18T14:36:12.852Z,89.25
2023-01-18T14:41:12.773Z,89.56
2023-01-18T14:46:16.108Z,88.87
2023-01-18T14:51:12.679Z,89.60
2023-01-18T14:56:12.674Z,89.81
2023-01-18T15:01:12.585Z,89.70
2023-01-18T15:06:12.463Z,89.39
2023-01-18T15:11:12.405Z,89.23
2023-01-18T15:16:12.381Z,89.64
2023-01-18T15:21:12.281Z,89.85
2023-01-18T15:26:12.219Z,90.16
2023-01-18T15:31:12.179Z,90.47
2023-01-18T15:36:12.104Z,90.69
2023-01-18T15:41:12.051Z,90.89
2023-01-18T15:46:12.022Z,91.66
2023-01-18T15:51:11.932Z,92.43
2023-01-18T15:56:11.840Z,92.95
2023-01-18T16:01:11.933Z,93.27
2023-01-18T16:06:11.736Z,93.48
2023-01-18T16:11:11.667Z,93.05
2023-01-18T16:16:11.628Z,93.05
2023-01-18T16:21:11.552Z,93.05
2023-01-18T16:26:11.492Z,93.27
2023-01-18T16:31:17.629Z,93.05
2023-01-18T16:36:11.353Z,93.05
2023-01-18T16:41:11.291Z,93.16
2023-01-18T16:46:11.245Z,93.16
2023-01-18T16:51:11.171Z,93.05
2023-01-18T16:56:11.099Z,93.16
2023-01-18T17:01:11.149Z,93.37
2023-01-18T17:06:10.980Z,93.27
2023-01-18T17:11:10.919Z,93.16
2023-01-18T17:16:10.860Z,93.05
2023-01-18T17:21:10.835Z,92.85
2023-01-18T17:26:10.740Z,93.05
2023-01-18T17:31:10.716Z,93.27
2023-01-18T17:36:10.617Z,93.27
2023-01-18T17:41:13.470Z,93.37
2023-01-18T17:46:10.521Z,93.48
2023-01-18T17:51:10.431Z,93.48
2023-01-18T17:56:10.369Z,93.37
2023-01-18T18:01:10.423Z,93.48
2023-01-18T18:06:12.645Z,93.58
2023-01-18T18:11:10.197Z,93.89
2023-01-18T18:16:18.084Z,93.89
2023-01-18T18:21:11.060Z,93.99
2023-01-18T18:26:09.998Z,94.10
2023-01-18T18:31:09.950Z,94.20
2023-01-18T18:36:09.868Z,94.31
2023-01-18T18:41:09.831Z,94.41
2023-01-18T18:46:09.809Z,94.41
2023-01-18T18:51:09.689Z,94.41
2023-01-18T18:56:10.343Z,94.51
2023-01-18T19:01:09.605Z,94.82
2023-01-18T19:06:09.511Z,95.25
2023-01-18T19:11:09.447Z,95.66
2023-01-18T19:16:09.433Z,95.56
2023-01-18T19:21:09.336Z,95.66
2023-01-18T19:26:09.259Z,95.45
2023-01-18T19:31:09.244Z,95.66
2023-01-18T19:36:09.141Z,95.76
2023-01-18T19:41:09.079Z,95.87
2023-01-18T19:46:09.010Z,95.97
2023-01-18T19:51:20.854Z,95.97
2023-01-18T19:56:09.886Z,95.97
2023-01-18T20:01:08.890Z,96.08
2023-01-18T20:06:08.766Z,96.18
2023-01-18T20:11:08.706Z,96.18
2023-01-18T20:16:08.728Z,96.28
2023-01-18T20:21:08.596Z,96.49
2023-01-18T20:26:08.520Z,96.70
2023-01-18T20:31:08.497Z,96.80
2023-01-18T20:36:08.428Z,97.01
2023-01-18T20:41:08.337Z,97.12
2023-01-18T20:46:08.300Z,97.43
2023-01-18T20:51:08.215Z,97.53
2023-01-18T20:56:14.343Z,97.74
2023-01-18T21:01:09.249Z,97.74
2023-01-18T21:06:09.096Z,97.64
2023-01-18T21:11:07.976Z,97.68
2023-01-18T21:16:07.913Z,97.64
2023-01-18T21:21:07.846Z,97.74
2023-01-18T21:26:07.784Z,97.43
2023-01-18T21:31:07.723Z,97.37
2023-01-18T21:36:07.666Z,97.22
2023-01-18T21:41:07.606Z,97.22
2023-01-18T21:46:07.561Z,97.01
2023-01-18T21:51:07.485Z,97.12
2023-01-18T21:56:07.415Z,97.06
2023-01-18T22:01:07.576Z,96.85
2023-01-18T22:06:07.294Z,96.64
2023-01-18T22:11:07.234Z,96.75
2023-01-18T22:16:07.182Z,96.89
2023-01-18T22:21:07.104Z,97.00
2023-01-18T22:26:07.045Z,97.10
2023-01-18T22:31:07.047Z,97.10
2023-01-18T22:36:06.935Z,97.31
2023-01-18T22:41:06.866Z,97.52
2023-01-18T22:46:06.884Z,97.72
2023-01-18T22:51:06.742Z,97.94
2023-01-18T22:56:06.694Z,98.04
2023-01-18T23:01:06.638Z,97.94
2023-01-18T23:06:06.563Z,98.04
2023-01-18T23:11:06.489Z,98.04
2023-01-18T23:16:06.455Z,98.14
2023-01-18T23:21:06.367Z,98.25
2023-01-18T23:26:06.292Z,98.25
2023-01-18T23:31:06.301Z,98.25
2023-01-18T23:36:06.183Z,98.14
2023-01-18T23:41:06.126Z,98.14
2023-01-18T23:46:06.111Z,97.83
2023-01-18T23:51:05.995Z,97.52
2023-01-18T23:56:05.941Z,97.52
